sensor_id;sensor_type;location;lat;lon;timestamp;P1;durP1;ratioP1;P2;durP2;ratioP2
74644;SDS011;63163;55.630;37.594;2023-03-16T00:00:44;17.0;;;10.5;;
74644;SDS011;63163;55.630;37.594;2023-03-16T00:01:44;13.9;;;10.2;;
74644;SDS011;63163;55.630;37.594;2023-03-16T00:02:45;18.3;;;10.6;;
74644;SDS011;63163;55.630;37.594;2023-03-16T00:03:45;15.3;;;10.7;;
74644;SDS011;63163;55.630;37.594;2023-03-16T00:04:46;16.1;;;10.4;;
74644;SDS011;63163;55.630;37.594;2023-03-16T00:05:47;14.3;;;10.4;;
74644;SDS011;63163;55.630;37.594;2023-03-16T00:06:48;14.1;;;10.5;;
74644;SDS011;63163;55.630;37.594;2023-03-16T00:07:48;16.1;;;10.5;;
74644;SDS011;63163;55.630;37.594;2023-03-16T00:08:49;16.7;;;10.1;;
74644;SDS011;63163;55.630;37.594;2023-03-16T00:09:49;18.2;;;10.9;;
74644;SDS011;63163;55.630;37.594;2023-03-16T00:10:51;17.2;;;10.8;;
74644;SDS011;63163;55.630;37.594;2023-03-16T00:11:53;15.1;;;10.8;;
74644;SDS011;63163;55.630;37.594;2023-03-16T00:12:54;16.5;;;11.1;;
74644;SDS011;63163;55.630;37.594;2023-03-16T00:13:54;16.1;;;11.0;;
74644;SDS011;63163;55.630;37.594;2023-03-16T00:14:55;16.4;;;10.2;;
74644;SDS011;63163;55.630;37.594;2023-03-16T00:15:56;15.5;;;10.7;;
74644;SDS011;63163;55.630;37.594;2023-03-16T00:16:57;16.7;;;11.2;;
74644;SDS011;63163;55.630;37.594;2023-03-16T00:17:57;16.3;;;10.5;;
74644;SDS011;63163;55.630;37.594;2023-03-16T00:18:58;14.2;;;10.5;;
74644;SDS011;63163;55.630;37.594;2023-03-16T00:19:58;15.2;;;10.7;;
74644;SDS011;63163;55.630;37.594;2023-03-16T00:21:05;14.7;;;10.8;;
74644;SDS011;63163;55.630;37.594;2023-03-16T00:22:06;13.8;;;10.2;;
74644;SDS011;63163;55.630;37.594;2023-03-16T00:23:06;14.5;;;10.5;;
74644;SDS011;63163;55.630;37.594;2023-03-16T00:24:07;16.0;;;10.9;;
74644;SDS011;63163;55.630;37.594;2023-03-16T00:25:08;15.2;;;10.6;;
74644;SDS011;63163;55.630;37.594;2023-03-16T00:26:09;15.9;;;10.6;;
74644;SDS011;63163;55.630;37.594;2023-03-16T00:27:10;16.8;;;10.8;;
74644;SDS011;63163;55.630;37.594;2023-03-16T00:28:13;15.9;;;10.8;;
74644;SDS011;63163;55.630;37.594;2023-03-16T00:29:14;15.4;;;10.5;;
74644;SDS011;63163;55.630;37.594;2023-03-16T00:30:15;15.4;;;10.5;;
74644;SDS011;63163;55.630;37.594;2023-03-16T00:31:16;16.8;;;11.3;;
74644;SDS011;63163;55.630;37.594;2023-03-16T00:32:17;16.0;;;11.0;;
74644;SDS011;63163;55.630;37.594;2023-03-16T00:33:17;17.6;;;11.6;;
74644;SDS011;63163;55.630;37.594;2023-03-16T00:34:18;15.8;;;11.5;;
74644;SDS011;63163;55.630;37.594;2023-03-16T00:35:18;17.8;;;11.3;;
74644;SDS011;63163;55.630;37.594;2023-03-16T00:36:20;16.5;;;11.3;;
74644;SDS011;63163;55.630;37.594;2023-03-16T00:37:22;15.4;;;10.7;;
74644;SDS011;63163;55.630;37.594;2023-03-16T00:38:23;18.2;;;11.2;;
74644;SDS011;63163;55.630;37.594;2023-03-16T00:39:23;16.7;;;11.8;;
74644;SDS011;63163;55.630;37.594;2023-03-16T00:40:24;16.5;;;11.7;;
74644;SDS011;63163;55.630;37.594;2023-03-16T00:41:24;22.0;;;12.9;;
74644;SDS011;63163;55.630;37.594;2023-03-16T00:42:25;16.0;;;11.3;;
74644;SDS011;63163;55.630;37.594;2023-03-16T00:43:26;17.5;;;12.4;;
74644;SDS011;63163;55.630;37.594;2023-03-16T00:44:27;22.3;;;14.7;;
74644;SDS011;63163;55.630;37.594;2023-03-16T00:45:27;16.2;;;10.9;;
74644;SDS011;63163;55.630;37.594;2023-03-16T00:46:28;19.7;;;12.1;;
74644;SDS011;63163;55.630;37.594;2023-03-16T00:47:29;17.6;;;11.6;;
74644;SDS011;63163;55.630;37.594;2023-03-16T00:48:30;17.3;;;11.4;;
74644;SDS011;63163;55.630;37.594;2023-03-16T00:49:33;16.2;;;11.2;;
74644;SDS011;63163;55.630;37.594;2023-03-16T00:50:34;15.7;;;11.5;;
74644;SDS011;63163;55.630;37.594;2023-03-16T00:51:34;15.1;;;11.2;;
74644;SDS011;63163;55.630;37.594;2023-03-16T00:52:35;16.0;;;11.7;;
74644;SDS011;63163;55.630;37.594;2023-03-16T00:53:35;17.6;;;11.4;;
74644;SDS011;63163;55.630;37.594;2023-03-16T00:54:36;17.4;;;11.4;;
74644;SDS011;63163;55.630;37.594;2023-03-16T00:55:36;18.1;;;11.5;;
74644;SDS011;63163;55.630;37.594;2023-03-16T00:56:38;16.8;;;11.3;;
74644;SDS011;63163;55.630;37.594;2023-03-16T00:57:38;16.3;;;11.8;;
74644;SDS011;63163;55.630;37.594;2023-03-16T00:58:39;16.7;;;12.2;;
74644;SDS011;63163;55.630;37.594;2023-03-16T00:59:42;16.4;;;11.1;;
74644;SDS011;63163;55.630;37.594;2023-03-16T01:00:42;17.9;;;12.0;;
74644;SDS011;63163;55.630;37.594;2023-03-16T01:01:43;17.1;;;11.5;;
74644;SDS011;63163;55.630;37.594;2023-03-16T01:02:45;17.5;;;11.5;;
74644;SDS011;63163;55.630;37.594;2023-03-16T01:03:46;17.2;;;11.3;;
74644;SDS011;63163;55.630;37.594;2023-03-16T01:04:46;17.2;;;11.3;;
74644;SDS011;63163;55.630;37.594;2023-03-16T01:05:47;16.8;;;11.2;;
74644;SDS011;63163;55.630;37.594;2023-03-16T01:06:48;16.6;;;11.3;;
74644;SDS011;63163;55.630;37.594;2023-03-16T01:07:48;17.0;;;11.1;;
74644;SDS011;63163;55.630;37.594;2023-03-16T01:08:49;15.2;;;11.3;;
74644;SDS011;63163;55.630;37.594;2023-03-16T01:09:51;15.7;;;11.5;;
74644;SDS011;63163;55.630;37.594;2023-03-16T01:10:52;14.5;;;10.7;;
74644;SDS011;63163;55.630;37.594;2023-03-16T01:11:53;16.3;;;11.6;;
74644;SDS011;63163;55.630;37.594;2023-03-16T01:12:53;17.3;;;11.9;;
74644;SDS011;63163;55.630;37.594;2023-03-16T01:13:55;17.0;;;11.6;;
74644;SDS011;63163;55.630;37.594;2023-03-16T01:14:56;16.7;;;11.6;;
74644;SDS011;63163;55.630;37.594;2023-03-16T01:15:57;15.9;;;11.0;;
74644;SDS011;63163;55.630;37.594;2023-03-16T01:16:57;16.9;;;11.2;;
74644;SDS011;63163;55.630;37.594;2023-03-16T01:17:58;19.1;;;11.0;;
74644;SDS011;63163;55.630;37.594;2023-03-16T01:18:59;19.1;;;11.2;;
74644;SDS011;63163;55.630;37.594;2023-03-16T01:20:00;17.4;;;11.6;;
74644;SDS011;63163;55.630;37.594;2023-03-16T01:21:01;16.6;;;11.0;;
74644;SDS011;63163;55.630;37.594;2023-03-16T01:22:03;16.8;;;12.0;;
74644;SDS011;63163;55.630;37.594;2023-03-16T01:23:03;16.6;;;11.3;;
74644;SDS011;63163;55.630;37.594;2023-03-16T01:24:04;14.3;;;10.7;;
74644;SDS011;63163;55.630;37.594;2023-03-16T01:25:05;15.8;;;11.9;;
74644;SDS011;63163;55.630;37.594;2023-03-16T01:26:06;17.7;;;10.9;;
74644;SDS011;63163;55.630;37.594;2023-03-16T01:27:07;15.1;;;10.3;;
74644;SDS011;63163;55.630;37.594;2023-03-16T01:28:08;14.6;;;10.2;;
74644;SDS011;63163;55.630;37.594;2023-03-16T01:29:09;17.4;;;10.5;;
74644;SDS011;63163;55.630;37.594;2023-03-16T01:30:10;17.4;;;10.5;;
74644;SDS011;63163;55.630;37.594;2023-03-16T01:31:12;15.5;;;10.2;;
74644;SDS011;63163;55.630;37.594;2023-03-16T01:32:13;14.8;;;10.6;;
74644;SDS011;63163;55.630;37.594;2023-03-16T01:33:14;16.8;;;11.1;;
74644;SDS011;63163;55.630;37.594;2023-03-16T01:34:14;18.7;;;9.7;;
74644;SDS011;63163;55.630;37.594;2023-03-16T01:35:17;13.7;;;10.2;;
74644;SDS011;63163;55.630;37.594;2023-03-16T01:36:20;16.9;;;10.5;;
74644;SDS011;63163;55.630;37.594;2023-03-16T01:37:21;17.0;;;10.1;;
74644;SDS011;63163;55.630;37.594;2023-03-16T01:38:22;16.4;;;11.2;;
74644;SDS011;63163;55.630;37.594;2023-03-16T01:39:22;15.3;;;10.6;;
74644;SDS011;63163;55.630;37.594;2023-03-16T01:40:23;15.7;;;10.9;;
74644;SDS011;63163;55.630;37.594;2023-03-16T01:41:23;16.6;;;10.5;;
74644;SDS011;63163;55.630;37.594;2023-03-16T01:42:26;14.6;;;10.2;;
74644;SDS011;63163;55.630;37.594;2023-03-16T01:43:27;14.9;;;10.9;;
74644;SDS011;63163;55.630;37.594;2023-03-16T01:44:28;14.0;;;9.9;;
74644;SDS011;63163;55.630;37.594;2023-03-16T01:46:35;15.3;;;11.1;;
74644;SDS011;63163;55.630;37.594;2023-03-16T01:47:35;16.2;;;11.2;;
74644;SDS011;63163;55.630;37.594;2023-03-16T01:48:39;15.6;;;10.8;;
74644;SDS011;63163;55.630;37.594;2023-03-16T01:49:41;15.8;;;10.1;;
74644;SDS011;63163;55.630;37.594;2023-03-16T01:50:41;15.3;;;10.4;;
74644;SDS011;63163;55.630;37.594;2023-03-16T01:51:43;15.9;;;10.4;;
74644;SDS011;63163;55.630;37.594;2023-03-16T01:52:44;20.0;;;11.1;;
74644;SDS011;63163;55.630;37.594;2023-03-16T01:53:45;17.8;;;10.8;;
74644;SDS011;63163;55.630;37.594;2023-03-16T01:54:48;14.7;;;10.5;;
74644;SDS011;63163;55.630;37.594;2023-03-16T01:55:50;16.3;;;10.3;;
74644;SDS011;63163;55.630;37.594;2023-03-16T01:56:53;16.2;;;10.5;;
74644;SDS011;63163;55.630;37.594;2023-03-16T01:57:55;13.2;;;9.8;;
74644;SDS011;63163;55.630;37.594;2023-03-16T01:58:56;16.7;;;10.4;;
74644;SDS011;63163;55.630;37.594;2023-03-16T01:59:58;15.6;;;10.5;;
74644;SDS011;63163;55.630;37.594;2023-03-16T02:01:07;15.3;;;9.8;;
74644;SDS011;63163;55.630;37.594;2023-03-16T02:02:08;14.8;;;10.1;;
74644;SDS011;63163;55.630;37.594;2023-03-16T02:03:09;15.0;;;10.7;;
74644;SDS011;63163;55.630;37.594;2023-03-16T02:04:15;15.6;;;9.9;;
74644;SDS011;63163;55.630;37.594;2023-03-16T02:05:19;16.2;;;10.2;;
74644;SDS011;63163;55.630;37.594;2023-03-16T02:06:22;15.3;;;9.9;;
74644;SDS011;63163;55.630;37.594;2023-03-16T02:07:23;15.3;;;10.4;;
74644;SDS011;63163;55.630;37.594;2023-03-16T02:08:24;14.8;;;10.1;;
74644;SDS011;63163;55.630;37.594;2023-03-16T02:09:26;15.6;;;10.0;;
74644;SDS011;63163;55.630;37.594;2023-03-16T02:10:27;20.4;;;10.2;;
74644;SDS011;63163;55.630;37.594;2023-03-16T02:11:27;13.5;;;9.9;;
74644;SDS011;63163;55.630;37.594;2023-03-16T02:12:28;13.9;;;9.7;;
74644;SDS011;63163;55.630;37.594;2023-03-16T02:13:29;16.7;;;10.2;;
74644;SDS011;63163;55.630;37.594;2023-03-16T02:14:33;14.2;;;9.5;;
74644;SDS011;63163;55.630;37.594;2023-03-16T02:15:33;13.9;;;9.5;;
74644;SDS011;63163;55.630;37.594;2023-03-16T02:16:35;15.6;;;10.1;;
74644;SDS011;63163;55.630;37.594;2023-03-16T02:17:35;14.0;;;10.0;;
74644;SDS011;63163;55.630;37.594;2023-03-16T02:18:36;15.1;;;9.8;;
74644;SDS011;63163;55.630;37.594;2023-03-16T02:19:38;15.0;;;10.2;;
74644;SDS011;63163;55.630;37.594;2023-03-16T02:20:44;15.5;;;9.7;;
74644;SDS011;63163;55.630;37.594;2023-03-16T02:21:49;15.0;;;9.6;;
74644;SDS011;63163;55.630;37.594;2023-03-16T02:22:53;13.1;;;9.4;;
74644;SDS011;63163;55.630;37.594;2023-03-16T02:23:54;14.4;;;9.8;;
74644;SDS011;63163;55.630;37.594;2023-03-16T02:24:55;13.4;;;9.7;;
74644;SDS011;63163;55.630;37.594;2023-03-16T02:25:56;13.7;;;9.4;;
74644;SDS011;63163;55.630;37.594;2023-03-16T02:27:01;15.3;;;9.1;;
74644;SDS011;63163;55.630;37.594;2023-03-16T02:28:05;15.0;;;10.0;;
74644;SDS011;63163;55.630;37.594;2023-03-16T02:29:13;15.8;;;9.6;;
74644;SDS011;63163;55.630;37.594;2023-03-16T02:30:16;15.8;;;9.6;;
74644;SDS011;63163;55.630;37.594;2023-03-16T02:31:17;15.7;;;9.9;;
74644;SDS011;63163;55.630;37.594;2023-03-16T02:32:18;12.8;;;9.5;;
74644;SDS011;63163;55.630;37.594;2023-03-16T02:33:19;16.6;;;10.1;;
74644;SDS011;63163;55.630;37.594;2023-03-16T02:34:20;15.7;;;9.5;;
74644;SDS011;63163;55.630;37.594;2023-03-16T02:35:21;15.4;;;9.1;;
74644;SDS011;63163;55.630;37.594;2023-03-16T02:36:22;12.9;;;9.1;;
74644;SDS011;63163;55.630;37.594;2023-03-16T02:37:22;15.8;;;9.2;;
74644;SDS011;63163;55.630;37.594;2023-03-16T02:38:23;14.9;;;9.3;;
74644;SDS011;63163;55.630;37.594;2023-03-16T02:39:24;15.1;;;9.5;;
74644;SDS011;63163;55.630;37.594;2023-03-16T02:40:25;15.0;;;10.0;;
74644;SDS011;63163;55.630;37.594;2023-03-16T02:41:26;17.1;;;10.1;;
74644;SDS011;63163;55.630;37.594;2023-03-16T02:42:27;16.3;;;9.1;;
74644;SDS011;63163;55.630;37.594;2023-03-16T02:43:29;14.3;;;9.6;;
74644;SDS011;63163;55.630;37.594;2023-03-16T02:44:33;15.6;;;9.7;;
74644;SDS011;63163;55.630;37.594;2023-03-16T02:45:35;14.9;;;9.7;;
74644;SDS011;63163;55.630;37.594;2023-03-16T02:46:36;13.9;;;9.5;;
74644;SDS011;63163;55.630;37.594;2023-03-16T02:47:37;13.9;;;9.4;;
74644;SDS011;63163;55.630;37.594;2023-03-16T02:48:40;13.8;;;8.8;;
74644;SDS011;63163;55.630;37.594;2023-03-16T02:49:43;14.5;;;9.5;;
74644;SDS011;63163;55.630;37.594;2023-03-16T02:50:45;13.9;;;9.7;;
74644;SDS011;63163;55.630;37.594;2023-03-16T02:51:47;14.9;;;9.3;;
74644;SDS011;63163;55.630;37.594;2023-03-16T02:52:47;16.4;;;9.5;;
74644;SDS011;63163;55.630;37.594;2023-03-16T02:53:48;15.3;;;9.6;;
74644;SDS011;63163;55.630;37.594;2023-03-16T02:54:48;15.9;;;9.9;;
74644;SDS011;63163;55.630;37.594;2023-03-16T02:55:49;15.2;;;9.2;;
74644;SDS011;63163;55.630;37.594;2023-03-16T02:56:49;13.9;;;10.0;;
74644;SDS011;63163;55.630;37.594;2023-03-16T02:57:50;15.1;;;10.2;;
74644;SDS011;63163;55.630;37.594;2023-03-16T02:58:51;16.6;;;9.6;;
74644;SDS011;63163;55.630;37.594;2023-03-16T02:59:52;13.1;;;9.4;;
74644;SDS011;63163;55.630;37.594;2023-03-16T03:00:52;12.7;;;8.5;;
74644;SDS011;63163;55.630;37.594;2023-03-16T03:01:53;14.5;;;8.7;;
74644;SDS011;63163;55.630;37.594;2023-03-16T03:02:53;13.1;;;9.0;;
74644;SDS011;63163;55.630;37.594;2023-03-16T03:03:53;13.9;;;9.1;;
74644;SDS011;63163;55.630;37.594;2023-03-16T03:04:54;13.7;;;9.1;;
74644;SDS011;63163;55.630;37.594;2023-03-16T03:05:55;13.3;;;9.4;;
74644;SDS011;63163;55.630;37.594;2023-03-16T03:06:55;15.0;;;9.6;;
74644;SDS011;63163;55.630;37.594;2023-03-16T03:08:03;14.9;;;9.8;;
74644;SDS011;63163;55.630;37.594;2023-03-16T03:09:04;15.3;;;9.4;;
74644;SDS011;63163;55.630;37.594;2023-03-16T03:10:04;17.2;;;9.8;;
74644;SDS011;63163;55.630;37.594;2023-03-16T03:11:05;15.9;;;9.8;;
74644;SDS011;63163;55.630;37.594;2023-03-16T03:12:06;13.2;;;9.2;;
74644;SDS011;63163;55.630;37.594;2023-03-16T03:13:06;13.1;;;8.9;;
74644;SDS011;63163;55.630;37.594;2023-03-16T03:14:07;12.8;;;8.7;;
74644;SDS011;63163;55.630;37.594;2023-03-16T03:15:08;13.7;;;8.8;;
74644;SDS011;63163;55.630;37.594;2023-03-16T03:16:08;15.2;;;9.0;;
74644;SDS011;63163;55.630;37.594;2023-03-16T03:17:09;14.2;;;8.9;;
74644;SDS011;63163;55.630;37.594;2023-03-16T03:18:10;14.4;;;9.3;;
74644;SDS011;63163;55.630;37.594;2023-03-16T03:19:11;12.2;;;8.5;;
74644;SDS011;63163;55.630;37.594;2023-03-16T03:20:11;13.2;;;9.0;;
74644;SDS011;63163;55.630;37.594;2023-03-16T03:21:16;15.3;;;9.6;;
74644;SDS011;63163;55.630;37.594;2023-03-16T03:22:16;14.3;;;9.4;;
74644;SDS011;63163;55.630;37.594;2023-03-16T03:23:18;13.4;;;9.1;;
74644;SDS011;63163;55.630;37.594;2023-03-16T03:24:18;13.0;;;9.0;;
74644;SDS011;63163;55.630;37.594;2023-03-16T03:25:19;14.8;;;9.3;;
74644;SDS011;63163;55.630;37.594;2023-03-16T03:26:20;13.9;;;8.9;;
74644;SDS011;63163;55.630;37.594;2023-03-16T03:27:20;13.1;;;9.2;;
74644;SDS011;63163;55.630;37.594;2023-03-16T03:28:21;13.4;;;8.9;;
74644;SDS011;63163;55.630;37.594;2023-03-16T03:29:22;13.4;;;8.9;;
74644;SDS011;63163;55.630;37.594;2023-03-16T03:30:23;14.4;;;9.4;;
74644;SDS011;63163;55.630;37.594;2023-03-16T03:31:24;12.2;;;8.9;;
74644;SDS011;63163;55.630;37.594;2023-03-16T03:32:24;15.9;;;9.0;;
74644;SDS011;63163;55.630;37.594;2023-03-16T03:33:24;14.5;;;8.7;;
74644;SDS011;63163;55.630;37.594;2023-03-16T03:34:25;17.3;;;9.7;;
74644;SDS011;63163;55.630;37.594;2023-03-16T03:35:26;11.9;;;9.0;;
74644;SDS011;63163;55.630;37.594;2023-03-16T03:36:27;12.8;;;8.4;;
74644;SDS011;63163;55.630;37.594;2023-03-16T03:37:27;12.8;;;9.4;;
74644;SDS011;63163;55.630;37.594;2023-03-16T03:38:28;15.2;;;9.2;;
74644;SDS011;63163;55.630;37.594;2023-03-16T03:39:28;14.2;;;9.1;;
74644;SDS011;63163;55.630;37.594;2023-03-16T03:40:29;14.2;;;9.0;;
74644;SDS011;63163;55.630;37.594;2023-03-16T03:41:29;12.7;;;8.8;;
74644;SDS011;63163;55.630;37.594;2023-03-16T03:42:30;17.9;;;9.2;;
74644;SDS011;63163;55.630;37.594;2023-03-16T03:43:30;14.3;;;9.4;;
74644;SDS011;63163;55.630;37.594;2023-03-16T03:44:31;12.3;;;8.2;;
74644;SDS011;63163;55.630;37.594;2023-03-16T03:45:33;15.9;;;8.9;;
74644;SDS011;63163;55.630;37.594;2023-03-16T03:46:34;12.5;;;8.7;;
74644;SDS011;63163;55.630;37.594;2023-03-16T03:47:34;14.2;;;8.5;;
74644;SDS011;63163;55.630;37.594;2023-03-16T03:48:35;15.2;;;8.8;;
74644;SDS011;63163;55.630;37.594;2023-03-16T03:49:35;12.3;;;8.5;;
74644;SDS011;63163;55.630;37.594;2023-03-16T03:50:36;12.2;;;8.8;;
74644;SDS011;63163;55.630;37.594;2023-03-16T03:51:37;13.0;;;7.8;;
74644;SDS011;63163;55.630;37.594;2023-03-16T03:52:38;14.9;;;8.7;;
74644;SDS011;63163;55.630;37.594;2023-03-16T03:53:38;14.1;;;8.2;;
74644;SDS011;63163;55.630;37.594;2023-03-16T03:54:39;13.7;;;8.4;;
74644;SDS011;63163;55.630;37.594;2023-03-16T03:55:40;12.5;;;8.4;;
74644;SDS011;63163;55.630;37.594;2023-03-16T03:56:40;15.2;;;8.2;;
74644;SDS011;63163;55.630;37.594;2023-03-16T03:57:41;12.8;;;8.4;;
74644;SDS011;63163;55.630;37.594;2023-03-16T03:58:41;13.9;;;8.3;;
74644;SDS011;63163;55.630;37.594;2023-03-16T03:59:42;11.7;;;8.0;;
74644;SDS011;63163;55.630;37.594;2023-03-16T04:00:43;13.0;;;8.1;;
74644;SDS011;63163;55.630;37.594;2023-03-16T04:01:43;12.9;;;8.3;;
74644;SDS011;63163;55.630;37.594;2023-03-16T04:02:44;15.0;;;8.5;;
74644;SDS011;63163;55.630;37.594;2023-03-16T04:03:44;12.3;;;8.4;;
74644;SDS011;63163;55.630;37.594;2023-03-16T04:04:45;13.6;;;8.9;;
74644;SDS011;63163;55.630;37.594;2023-03-16T04:05:45;12.4;;;7.9;;
74644;SDS011;63163;55.630;37.594;2023-03-16T04:06:46;14.9;;;8.5;;
74644;SDS011;63163;55.630;37.594;2023-03-16T04:07:47;12.9;;;8.0;;
74644;SDS011;63163;55.630;37.594;2023-03-16T04:08:48;12.4;;;8.3;;
74644;SDS011;63163;55.630;37.594;2023-03-16T04:09:50;15.1;;;7.3;;
74644;SDS011;63163;55.630;37.594;2023-03-16T04:10:50;13.7;;;8.4;;
74644;SDS011;63163;55.630;37.594;2023-03-16T04:11:51;14.0;;;8.5;;
74644;SDS011;63163;55.630;37.594;2023-03-16T04:12:52;17.5;;;8.6;;
74644;SDS011;63163;55.630;37.594;2023-03-16T04:13:52;12.1;;;8.3;;
74644;SDS011;63163;55.630;37.594;2023-03-16T04:14:53;13.4;;;8.7;;
74644;SDS011;63163;55.630;37.594;2023-03-16T04:15:55;16.1;;;8.9;;
74644;SDS011;63163;55.630;37.594;2023-03-16T04:16:55;15.5;;;9.3;;
74644;SDS011;63163;55.630;37.594;2023-03-16T04:17:56;15.3;;;9.4;;
74644;SDS011;63163;55.630;37.594;2023-03-16T04:18:56;15.1;;;9.2;;
74644;SDS011;63163;55.630;37.594;2023-03-16T04:19:57;19.9;;;9.3;;
74644;SDS011;63163;55.630;37.594;2023-03-16T04:20:58;14.7;;;8.7;;
74644;SDS011;63163;55.630;37.594;2023-03-16T04:21:58;13.2;;;8.2;;
74644;SDS011;63163;55.630;37.594;2023-03-16T04:22:58;13.6;;;9.0;;
74644;SDS011;63163;55.630;37.594;2023-03-16T04:23:59;14.0;;;8.7;;
74644;SDS011;63163;55.630;37.594;2023-03-16T04:25:00;13.0;;;8.5;;
74644;SDS011;63163;55.630;37.594;2023-03-16T04:26:04;14.2;;;8.6;;
74644;SDS011;63163;55.630;37.594;2023-03-16T04:27:04;15.1;;;8.5;;
74644;SDS011;63163;55.630;37.594;2023-03-16T04:28:05;14.0;;;8.7;;
74644;SDS011;63163;55.630;37.594;2023-03-16T04:29:05;14.7;;;8.9;;
74644;SDS011;63163;55.630;37.594;2023-03-16T04:30:07;14.7;;;8.9;;
74644;SDS011;63163;55.630;37.594;2023-03-16T04:31:10;12.8;;;8.2;;
74644;SDS011;63163;55.630;37.594;2023-03-16T04:32:11;13.4;;;8.5;;
74644;SDS011;63163;55.630;37.594;2023-03-16T04:33:11;15.2;;;8.2;;
74644;SDS011;63163;55.630;37.594;2023-03-16T04:34:12;12.6;;;8.0;;
74644;SDS011;63163;55.630;37.594;2023-03-16T04:35:13;13.3;;;7.8;;
74644;SDS011;63163;55.630;37.594;2023-03-16T04:36:14;14.0;;;7.9;;
74644;SDS011;63163;55.630;37.594;2023-03-16T04:37:15;11.4;;;7.6;;
74644;SDS011;63163;55.630;37.594;2023-03-16T04:38:15;12.8;;;8.2;;
74644;SDS011;63163;55.630;37.594;2023-03-16T04:39:16;13.6;;;8.2;;
74644;SDS011;63163;55.630;37.594;2023-03-16T04:40:16;13.7;;;8.0;;
74644;SDS011;63163;55.630;37.594;2023-03-16T04:41:18;12.0;;;8.1;;
74644;SDS011;63163;55.630;37.594;2023-03-16T04:42:19;12.2;;;8.0;;
74644;SDS011;63163;55.630;37.594;2023-03-16T04:43:19;13.7;;;8.2;;
74644;SDS011;63163;55.630;37.594;2023-03-16T04:44:20;14.9;;;8.4;;
74644;SDS011;63163;55.630;37.594;2023-03-16T04:45:20;12.6;;;8.1;;
74644;SDS011;63163;55.630;37.594;2023-03-16T04:46:21;14.3;;;8.1;;
74644;SDS011;63163;55.630;37.594;2023-03-16T04:47:21;12.4;;;7.5;;
74644;SDS011;63163;55.630;37.594;2023-03-16T04:48:22;13.1;;;8.9;;
74644;SDS011;63163;55.630;37.594;2023-03-16T04:49:23;12.9;;;8.2;;
74644;SDS011;63163;55.630;37.594;2023-03-16T04:50:24;12.0;;;7.9;;
74644;SDS011;63163;55.630;37.594;2023-03-16T04:51:24;13.1;;;8.0;;
74644;SDS011;63163;55.630;37.594;2023-03-16T04:52:25;13.7;;;8.3;;
74644;SDS011;63163;55.630;37.594;2023-03-16T04:53:25;12.6;;;8.3;;
74644;SDS011;63163;55.630;37.594;2023-03-16T04:54:26;12.7;;;8.2;;
74644;SDS011;63163;55.630;37.594;2023-03-16T04:55:27;13.6;;;7.7;;
74644;SDS011;63163;55.630;37.594;2023-03-16T04:56:27;11.3;;;7.4;;
74644;SDS011;63163;55.630;37.594;2023-03-16T04:57:28;11.7;;;7.4;;
74644;SDS011;63163;55.630;37.594;2023-03-16T04:58:29;13.7;;;8.0;;
74644;SDS011;63163;55.630;37.594;2023-03-16T04:59:30;12.4;;;8.1;;
74644;SDS011;63163;55.630;37.594;2023-03-16T05:00:31;12.9;;;7.5;;
74644;SDS011;63163;55.630;37.594;2023-03-16T05:01:32;11.5;;;7.8;;
74644;SDS011;63163;55.630;37.594;2023-03-16T05:02:33;14.6;;;8.3;;
74644;SDS011;63163;55.630;37.594;2023-03-16T05:03:33;11.6;;;8.2;;
74644;SDS011;63163;55.630;37.594;2023-03-16T05:04:34;11.9;;;8.0;;
74644;SDS011;63163;55.630;37.594;2023-03-16T05:05:35;11.1;;;7.7;;
74644;SDS011;63163;55.630;37.594;2023-03-16T05:06:35;11.7;;;7.7;;
74644;SDS011;63163;55.630;37.594;2023-03-16T05:07:36;11.9;;;7.3;;
74644;SDS011;63163;55.630;37.594;2023-03-16T05:08:36;12.7;;;7.5;;
74644;SDS011;63163;55.630;37.594;2023-03-16T05:09:37;14.8;;;7.9;;
74644;SDS011;63163;55.630;37.594;2023-03-16T05:10:37;14.5;;;7.9;;
74644;SDS011;63163;55.630;37.594;2023-03-16T05:11:38;13.1;;;8.4;;
74644;SDS011;63163;55.630;37.594;2023-03-16T05:12:39;13.4;;;8.2;;
74644;SDS011;63163;55.630;37.594;2023-03-16T05:13:39;10.7;;;7.3;;
74644;SDS011;63163;55.630;37.594;2023-03-16T05:14:40;11.6;;;7.5;;
74644;SDS011;63163;55.630;37.594;2023-03-16T05:15:40;10.3;;;7.5;;
74644;SDS011;63163;55.630;37.594;2023-03-16T05:16:41;11.3;;;7.8;;
74644;SDS011;63163;55.630;37.594;2023-03-16T05:17:42;13.2;;;7.7;;
74644;SDS011;63163;55.630;37.594;2023-03-16T05:18:42;13.6;;;8.2;;
74644;SDS011;63163;55.630;37.594;2023-03-16T05:19:43;12.7;;;8.2;;
74644;SDS011;63163;55.630;37.594;2023-03-16T05:20:44;12.8;;;7.8;;
74644;SDS011;63163;55.630;37.594;2023-03-16T05:21:44;12.9;;;8.3;;
74644;SDS011;63163;55.630;37.594;2023-03-16T05:22:45;10.7;;;7.5;;
74644;SDS011;63163;55.630;37.594;2023-03-16T05:23:45;11.3;;;7.9;;
74644;SDS011;63163;55.630;37.594;2023-03-16T05:24:46;13.1;;;8.2;;
74644;SDS011;63163;55.630;37.594;2023-03-16T05:25:46;13.0;;;8.4;;
74644;SDS011;63163;55.630;37.594;2023-03-16T05:26:47;14.1;;;8.1;;
74644;SDS011;63163;55.630;37.594;2023-03-16T05:27:48;15.3;;;8.7;;
74644;SDS011;63163;55.630;37.594;2023-03-16T05:28:49;14.3;;;7.9;;
74644;SDS011;63163;55.630;37.594;2023-03-16T05:29:50;13.6;;;8.1;;
74644;SDS011;63163;55.630;37.594;2023-03-16T05:30:50;13.6;;;8.1;;
74644;SDS011;63163;55.630;37.594;2023-03-16T05:31:51;13.2;;;8.1;;
74644;SDS011;63163;55.630;37.594;2023-03-16T05:32:51;12.0;;;7.6;;
74644;SDS011;63163;55.630;37.594;2023-03-16T05:33:52;12.3;;;7.6;;
74644;SDS011;63163;55.630;37.594;2023-03-16T05:34:53;12.6;;;7.8;;
74644;SDS011;63163;55.630;37.594;2023-03-16T05:35:53;11.5;;;7.3;;
74644;SDS011;63163;55.630;37.594;2023-03-16T05:36:54;12.2;;;7.7;;
74644;SDS011;63163;55.630;37.594;2023-03-16T05:37:54;13.8;;;8.0;;
74644;SDS011;63163;55.630;37.594;2023-03-16T05:38:55;11.5;;;7.1;;
74644;SDS011;63163;55.630;37.594;2023-03-16T05:39:55;11.5;;;7.8;;
74644;SDS011;63163;55.630;37.594;2023-03-16T05:40:56;12.8;;;7.8;;
74644;SDS011;63163;55.630;37.594;2023-03-16T05:42:00;13.2;;;7.8;;
74644;SDS011;63163;55.630;37.594;2023-03-16T05:43:01;10.8;;;7.7;;
74644;SDS011;63163;55.630;37.594;2023-03-16T05:44:02;10.4;;;7.5;;
74644;SDS011;63163;55.630;37.594;2023-03-16T05:45:04;12.5;;;7.7;;
74644;SDS011;63163;55.630;37.594;2023-03-16T05:46:05;11.7;;;7.9;;
74644;SDS011;63163;55.630;37.594;2023-03-16T05:47:06;12.0;;;7.5;;
74644;SDS011;63163;55.630;37.594;2023-03-16T05:48:06;13.1;;;7.7;;
74644;SDS011;63163;55.630;37.594;2023-03-16T05:49:07;12.0;;;7.4;;
74644;SDS011;63163;55.630;37.594;2023-03-16T05:50:08;12.5;;;7.2;;
74644;SDS011;63163;55.630;37.594;2023-03-16T05:51:10;12.8;;;7.6;;
74644;SDS011;63163;55.630;37.594;2023-03-16T05:52:13;10.8;;;7.4;;
74644;SDS011;63163;55.630;37.594;2023-03-16T05:53:13;13.0;;;7.5;;
74644;SDS011;63163;55.630;37.594;2023-03-16T05:54:14;10.7;;;7.2;;
74644;SDS011;63163;55.630;37.594;2023-03-16T05:55:15;11.6;;;7.4;;
74644;SDS011;63163;55.630;37.594;2023-03-16T05:56:16;11.5;;;7.7;;
74644;SDS011;63163;55.630;37.594;2023-03-16T05:57:17;12.2;;;7.9;;
74644;SDS011;63163;55.630;37.594;2023-03-16T05:58:17;11.1;;;7.5;;
74644;SDS011;63163;55.630;37.594;2023-03-16T05:59:18;12.2;;;7.4;;
74644;SDS011;63163;55.630;37.594;2023-03-16T06:00:19;12.9;;;7.6;;
74644;SDS011;63163;55.630;37.594;2023-03-16T06:01:20;11.6;;;7.6;;
74644;SDS011;63163;55.630;37.594;2023-03-16T06:02:21;11.2;;;7.5;;
74644;SDS011;63163;55.630;37.594;2023-03-16T06:03:21;11.8;;;7.3;;
74644;SDS011;63163;55.630;37.594;2023-03-16T06:04:22;11.4;;;7.0;;
74644;SDS011;63163;55.630;37.594;2023-03-16T06:05:22;11.3;;;7.2;;
74644;SDS011;63163;55.630;37.594;2023-03-16T06:06:24;10.4;;;7.2;;
74644;SDS011;63163;55.630;37.594;2023-03-16T06:07:24;12.0;;;7.4;;